Time;durP1;ratioP1;P1;durP2;ratioP2;P2;SDS_P1;SDS_P2;PMS_P1;PMS_P2;Temp;Humidity;BMP_temperature;BMP_pressure;BME280_temperature;BME280_humidity;BME280_pressure;Samples;Min_cycle;Max_cycle;Signal;HPM_P1;HPM_P2
2021/10/10 00:00:26;;;;;;;21.48;9.70;;;;;;;5.63;46.07;101447.45;1652819;85;20994;-70
2021/10/10 00:02:53;;;;;;;13.15;8.65;;;;;;;5.64;46.02;101443.78;1669882;85;20956;-69
2021/10/10 00:05:19;;;;;;;14.85;9.13;;;;;;;5.68;46.16;101446.42;1688245;85;21068;-73
2021/10/10 00:07:46;;;;;;;20.92;10.05;;;;;;;5.68;46.21;101443.75;1662731;85;21875;-70
2021/10/10 00:10:13;;;;;;;13.18;8.90;;;;;;;5.68;46.31;101443.75;1686004;84;21016;-71
2021/10/10 00:12:40;;;;;;;16.57;9.88;;;;;;;5.65;46.44;101446.28;1661064;85;20994;-71
2021/10/10 00:15:10;;;;;;;15.45;9.88;;;;;;;5.66;46.42;101439.91;1659248;85;21077;-72
2021/10/10 00:17:37;;;;;;;13.80;8.83;;;;;;;5.69;46.37;101438.75;1702316;84;21016;-72
2021/10/10 00:20:05;;;;;;;16.80;8.93;;;;;;;5.67;46.70;101436.75;1702866;84;21281;-73
2021/10/10 00:22:32;;;;;;;20.97;9.13;;;;;;;5.67;46.62;101442.92;1692737;84;20948;-70
2021/10/10 00:24:58;;;;;;;11.88;8.00;;;;;;;5.70;46.78;101444.42;1690801;83;21095;-70
2021/10/10 00:27:24;;;;;;;14.70;10.48;;;;;;;5.70;46.86;101437.25;1722473;82;20948;-70
2021/10/10 00:29:51;;;;;;;11.18;8.55;;;;;;;5.71;46.86;101441.56;1744746;82;21005;-72
2021/10/10 00:32:17;;;;;;;12.93;8.63;;;;;;;5.68;47.09;101440.58;1695270;82;21069;-72
2021/10/10 00:34:44;;;;;;;16.67;8.73;;;;;;;5.68;47.09;101440.58;1718157;82;21020;-71
2021/10/10 00:37:10;;;;;;;12.40;8.55;;;;;;;5.68;47.20;101445.92;1737815;82;21052;-71
2021/10/10 00:39:37;;;;;;;11.65;7.92;;;;;;;5.65;47.32;101445.45;1744752;82;21092;-74
2021/10/10 00:42:06;;;;;;;12.25;8.63;;;;;;;5.62;47.43;101443.95;1720663;82;21069;-70
2021/10/10 00:44:34;;;;;;;15.15;8.83;;;;;;;5.55;47.70;101438.99;1676659;85;23277;-71
2021/10/10 00:47:00;;;;;;;16.87;10.15;;;;;;;5.55;47.71;101442.16;1714557;83;21013;-71
2021/10/10 00:49:27;;;;;;;14.28;10.03;;;;;;;5.53;47.82;101436.98;1708915;84;21501;-72
2021/10/10 00:51:53;;;;;;;13.83;8.98;;;;;;;5.51;47.75;101436.84;1713470;83;20922;-71
2021/10/10 00:54:20;;;;;;;14.18;9.25;;;;;;;5.51;47.75;101436.84;1676270;85;21577;-71
2021/10/10 00:56:46;;;;;;;16.25;9.73;;;;;;;5.53;47.94;101429.48;1689686;83;21391;-72
2021/10/10 00:59:14;;;;;;;17.40;9.75;;;;;;;5.54;47.97;101429.81;1685645;83;21002;-72
2021/10/10 01:01:41;;;;;;;20.35;9.05;;;;;;;5.48;48.30;101435.34;1708363;83;21028;-70
2021/10/10 01:04:07;;;;;;;13.90;9.08;;;;;;;5.46;48.37;101428.03;1689781;84;21596;-71
2021/10/10 01:06:34;;;;;;;15.35;8.85;;;;;;;5.46;48.47;101431.20;1670539;85;21598;-71
2021/10/10 01:09:00;;;;;;;15.38;8.13;;;;;;;5.46;48.53;101437.37;1694463;83;21100;-70
2021/10/10 01:11:26;;;;;;;13.50;9.05;;;;;;;5.47;48.63;101436.84;1696660;82;20961;-72
2021/10/10 01:13:52;;;;;;;13.05;9.03;;;;;;;5.45;48.76;101430.86;1679735;85;21545;-72
2021/10/10 01:16:21;;;;;;;15.53;10.08;;;;;;;5.43;48.80;101433.69;1713081;83;21904;-71
2021/10/10 01:18:48;;;;;;;14.53;9.63;;;;;;;5.45;48.92;101426.36;1659155;85;21010;-71
2021/10/10 01:21:17;;;;;;;15.72;9.05;;;;;;;5.45;49.05;101435.70;1716758;82;21220;-72
2021/10/10 01:23:43;;;;;;;13.05;8.88;;;;;;;5.43;49.10;101433.69;1743224;80;21004;-72
2021/10/10 01:26:10;;;;;;;11.83;7.95;;;;;;;5.43;49.14;101436.86;1736878;82;21043;-73
2021/10/10 01:28:36;;;;;;;14.30;8.45;;;;;;;5.42;49.14;101434.69;1738743;82;21536;-72
2021/10/10 01:31:02;;;;;;;10.72;8.40;;;;;;;5.42;49.23;101429.89;1722841;82;21505;-71
2021/10/10 01:33:30;;;;;;;11.68;8.03;;;;;;;5.42;49.20;101434.69;1737795;82;21414;-72
2021/10/10 01:35:56;;;;;;;14.70;9.23;;;;;;;5.44;49.12;101428.69;1715961;82;20980;-72
2021/10/10 01:38:24;;;;;;;10.82;8.13;;;;;;;5.43;49.28;101426.19;1732021;82;21455;-70
2021/10/10 01:40:50;;;;;;;12.47;8.85;;;;;;;5.42;49.28;101432.02;1680534;85;21580;-72
2021/10/10 01:43:16;;;;;;;16.17;8.90;;;;;;;5.38;49.65;101428.55;1677183;85;21012;-72
2021/10/10 01:45:44;;;;;;;20.20;10.00;;;;;;;5.33;49.66;101429.56;1669297;85;21188;-71
2021/10/10 01:48:11;;;;;;;11.40;8.33;;;;;;;5.34;49.83;101429.40;1669448;85;21057;-73
2021/10/10 01:50:37;;;;;;;11.03;8.18;;;;;;;5.34;49.74;101423.23;1703393;84;21036;-72
2021/10/10 01:53:04;;;;;;;12.23;7.87;;;;;;;5.36;49.77;101422.06;1659147;85;21021;-71
2021/10/10 01:55:31;;;;;;;18.67;9.58;;;;;;;5.34;50.05;101415.23;1738958;82;21545;-70
2021/10/10 01:57:57;;;;;;;15.98;8.35;;;;;;;5.30;50.11;101420.08;1739938;82;21310;-71
2021/10/10 02:00:24;;;;;;;11.78;7.50;;;;;;;5.28;50.37;101421.58;1700732;83;20992;-72
2021/10/10 02:02:50;;;;;;;10.78;8.20;;;;;;;5.26;50.29;101423.61;1742811;82;21036;-73
2021/10/10 02:05:17;;;;;;;13.53;8.45;;;;;;;5.23;50.49;101417.27;1740146;82;21005;-72
2021/10/10 02:07:44;;;;;;;12.37;9.13;;;;;;;5.22;50.70;101423.63;1668118;85;21053;-71
2021/10/10 02:10:11;;;;;;;16.60;8.68;;;;;;;5.21;50.69;101424.63;1673699;85;21311;-72
2021/10/10 02:12:39;;;;;;;10.98;7.87;;;;;;;5.22;50.68;101426.80;1689928;84;21467;-72
2021/10/10 02:15:07;;;;;;;15.88;9.58;;;;;;;5.26;50.50;101427.61;1743729;82;21479;-71
2021/10/10 02:17:34;;;;;;;13.18;7.62;;;;;;;5.27;50.67;101421.25;1732014;82;21024;-72
2021/10/10 02:20:01;;;;;;;12.20;7.83;;;;;;;5.27;50.75;101426.58;1708773;83;21088;-71
2021/10/10 02:22:27;;;;;;;16.17;9.13;;;;;;;5.25;51.08;101426.44;1723591;82;21218;-71
2021/10/10 02:24:53;;;;;;;16.85;8.45;;;;;;;5.23;50.96;101421.27;1695066;83;20956;-70
2021/10/10 02:27:20;;;;;;;13.70;7.35;;;;;;;5.23;51.08;101421.27;1714997;82;21004;-71
2021/10/10 02:29:46;;;;;;;11.97;8.13;;;;;;;5.24;50.94;101423.44;1689542;83;21641;-71
2021/10/10 02:32:12;;;;;;;10.50;8.00;;;;;;;5.23;51.04;101420.43;1715889;82;21079;-71
2021/10/10 02:34:39;;;;;;;11.30;7.95;;;;;;;5.20;51.21;101420.29;1715162;82;21485;-71
2021/10/10 02:37:06;;;;;;;12.55;6.75;;;;;;;5.18;51.38;101426.28;1684117;83;20976;-72
2021/10/10 02:39:33;;;;;;;11.03;7.40;;;;;;;5.20;51.30;101424.79;1683147;83;21549;-71
2021/10/10 02:42:00;;;;;;;13.93;7.58;;;;;;;5.22;51.16;101426.30;1715348;82;21284;-72
2021/10/10 02:44:27;;;;;;;13.00;9.18;;;;;;;5.26;51.09;101428.11;1719676;82;21001;-72
2021/10/10 02:46:53;;;;;;;12.33;8.25;;;;;;;5.29;51.04;101425.08;1743049;82;21483;-72
2021/10/10 02:49:19;;;;;;;13.08;9.35;;;;;;;5.31;51.05;101430.25;1743046;82;21000;-72
2021/10/10 02:51:46;;;;;;;15.50;10.38;;;;;;;5.30;51.13;101426.75;1742326;82;20997;-72
2021/10/10 02:54:13;;;;;;;12.40;7.95;;;;;;;5.30;51.13;101429.92;1736105;82;21536;-71
2021/10/10 02:56:40;;;;;;;14.80;8.10;;;;;;;5.31;51.21;101431.09;1744477;82;21576;-71
2021/10/10 02:59:06;;;;;;;16.67;8.50;;;;;;;5.31;51.17;101430.25;1744383;82;21085;-72
2021/10/10 03:01:32;;;;;;;10.50;7.72;;;;;;;5.30;51.25;101428.59;1718345;82;21059;-71
2021/10/10 03:04:00;;;;;;;13.28;7.20;;;;;;;5.26;51.48;101427.61;1717453;82;20945;-72
2021/10/10 03:06:27;;;;;;;9.35;6.97;;;;;;;5.23;51.55;101426.60;1739344;82;21493;-71
2021/10/10 03:08:53;;;;;;;10.72;7.60;;;;;;;5.24;51.54;101428.27;1715157;83;20981;-72
2021/10/10 03:11:19;;;;;;;13.93;7.33;;;;;;;5.22;51.71;101432.97;1714842;83;21127;-72
2021/10/10 03:13:46;;;;;;;10.90;7.00;;;;;;;5.19;51.80;101432.45;1721934;82;21593;-71
2021/10/10 03:16:12;;;;;;;11.57;8.00;;;;;;;5.17;51.96;101435.81;1742869;82;20981;-71
2021/10/10 03:18:39;;;;;;;13.93;7.33;;;;;;;5.14;52.15;101434.30;1743108;82;21013;-72
2021/10/10 03:21:06;;;;;;;14.23;8.40;;;;;;;5.14;52.08;101430.80;1742911;82;21009;-71
2021/10/10 03:23:33;;;;;;;11.25;7.15;;;;;;;5.10;52.25;101427.66;1742408;82;21066;-72
2021/10/10 03:25:59;;;;;;;10.65;7.50;;;;;;;5.07;52.40;101422.67;1742910;82;21043;-72
2021/10/10 03:28:25;;;;;;;10.95;7.65;;;;;;;5.06;52.47;101425.00;1742821;82;21040;-72
2021/10/10 03:30:51;;;;;;;8.48;7.12;;;;;;;5.04;52.48;101416.83;1740675;82;21037;-73
2021/10/10 03:33:18;;;;;;;7.97;7.12;;;;;;;5.04;52.66;101419.50;1722503;82;21057;-73
2021/10/10 03:35:44;;;;;;;12.90;8.73;;;;;;;5.04;52.64;101415.50;1744586;82;21996;-71
2021/10/10 03:38:10;;;;;;;11.40;7.90;;;;;;;5.01;52.86;101418.52;1722343;82;20988;-73
2021/10/10 03:40:36;;;;;;;9.93;6.70;;;;;;;5.01;52.80;101414.52;1741149;82;21123;-72
2021/10/10 03:43:03;;;;;;;10.93;7.53;;;;;;;5.02;52.86;101413.02;1742948;82;21518;-72
2021/10/10 03:45:29;;;;;;;12.80;8.58;;;;;;;5.00;53.00;101420.34;1743014;82;21017;-72
2021/10/10 03:47:55;;;;;;;12.82;7.45;;;;;;;4.98;52.97;101417.04;1743194;82;21894;-72
2021/10/10 03:50:22;;;;;;;12.65;7.53;;;;;;;4.95;53.24;101415.19;1742430;82;20984;-71
2021/10/10 03:52:48;;;;;;;11.20;7.50;;;;;;;4.91;53.41;101409.38;1696717;83;20949;-71
2021/10/10 03:58:00;;;;;;;17.45;8.13;;;;;;;4.91;53.53;101412.05;1720946;82;21006;-71
2021/10/10 04:00:29;;;;;;;15.38;9.70;;;;;;;4.91;53.71;101408.55;1716007;82;21146;-71
2021/10/10 04:02:55;;;;;;;13.55;8.53;;;;;;;4.85;54.08;101411.38;1736757;82;20976;-71
2021/10/10 04:08:00;;;;;;;15.25;8.83;;;;;;;4.79;54.29;101406.26;1743121;82;20988;-71
2021/10/10 04:10:27;;;;;;;15.53;9.03;;;;;;;4.77;54.28;101406.92;1744660;82;20985;-72
2021/10/10 04:12:54;;;;;;;16.52;9.60;;;;;;;4.77;54.47;101400.75;1722229;82;21060;-72
2021/10/10 04:15:21;;;;;;;12.18;8.48;;;;;;;4.75;54.50;101403.58;1744611;82;21046;-70
2021/10/10 04:17:47;;;;;;;17.55;9.98;;;;;;;4.73;54.67;101407.43;1728909;82;20989;-71
2021/10/10 04:20:16;;;;;;;12.60;8.08;;;;;;;4.72;54.62;101397.27;1714084;82;20961;-72
2021/10/10 04:22:43;;;;;;;14.33;8.85;;;;;;;4.71;54.85;101398.76;1730536;82;21099;-72
2021/10/10 04:25:10;;;;;;;10.65;7.72;;;;;;;4.70;54.81;101397.92;1684473;83;21109;-72
2021/10/10 04:27:37;;;;;;;11.80;8.80;;;;;;;4.72;54.70;101395.93;1684647;83;21607;-73
2021/10/10 04:30:07;;;;;;;13.08;9.33;;;;;;;4.71;55.06;101396.09;1719136;82;20992;-71
2021/10/10 04:32:34;;;;;;;17.73;7.95;;;;;;;4.72;55.10;101396.43;1718947;82;21636;-71
2021/10/10 04:35:00;;;;;;;13.48;8.95;;;;;;;4.74;54.99;101397.94;1719087;83;21758;-71
2021/10/10 04:37:27;;;;;;;12.15;9.15;;;;;;;4.75;54.96;101396.91;1705836;82;21258;-72
2021/10/10 04:39:53;;;;;;;23.50;10.18;;;;;;;4.76;55.01;101405.25;1690346;84;20953;-71
2021/10/10 04:42:20;;;;;;;17.02;10.40;;;;;;;4.75;55.23;101404.08;1672030;85;21498;-73
2021/10/10 04:44:46;;;;;;;13.15;9.45;;;;;;;4.73;55.22;101403.43;1690103;84;20976;-73
2021/10/10 04:47:13;;;;;;;13.88;9.45;;;;;;;4.74;55.22;101400.61;1698410;83;21563;-72
2021/10/10 04:49:39;;;;;;;13.03;8.45;;;;;;;4.77;55.14;101401.59;1699364;83;21570;-72
2021/10/10 04:52:05;;;;;;;12.78;8.30;;;;;;;4.78;55.27;101407.25;1718921;83;20973;-73
2021/10/10 04:54:33;;;;;;;15.53;9.00;;;;;;;4.78;55.32;101411.25;1699207;83;21126;-72
2021/10/10 04:57:00;;;;;;;25.15;11.33;;;;;;;4.78;55.17;101401.92;1695581;83;21017;-72
2021/10/10 04:59:27;;;;;;;14.65;10.28;;;;;;;4.79;55.29;101406.26;1719203;82;20998;-71
2021/10/10 05:01:53;;;;;;;15.03;9.95;;;;;;;4.79;55.46;101402.27;1718901;82;21783;-71
2021/10/10 05:04:19;;;;;;;15.40;10.55;;;;;;;4.79;55.47;101404.09;1718738;82;21040;-72
2021/10/10 05:06:46;;;;;;;10.78;7.45;;;;;;;4.80;55.61;101412.39;1697746;83;20976;-72
2021/10/10 05:09:12;;;;;;;12.18;9.10;;;;;;;4.81;55.59;101405.57;1712457;83;20997;-71
2021/10/10 05:11:38;;;;;;;13.13;8.45;;;;;;;4.82;55.69;101407.24;1718839;83;21009;-72
2021/10/10 05:14:04;;;;;;;16.17;9.33;;;;;;;4.81;55.88;101410.91;1718804;83;21269;-71
2021/10/10 05:16:31;;;;;;;11.85;8.10;;;;;;;4.83;55.68;101411.58;1718622;83;20973;-74
2021/10/10 05:18:58;;;;;;;22.45;10.13;;;;;;;4.83;55.92;101417.41;1717649;83;21558;-71
2021/10/10 05:21:24;;;;;;;11.40;8.78;;;;;;;4.83;55.91;101416.91;1718809;83;21480;-71
2021/10/10 05:23:50;;;;;;;14.03;8.75;;;;;;;4.87;56.03;101416.55;1699179;83;21033;-71
2021/10/10 05:26:17;;;;;;;16.42;10.20;;;;;;;4.90;55.96;101418.38;1739052;81;21384;-72
2021/10/10 05:28:43;;;;;;;15.85;9.78;;;;;;;4.93;55.99;101418.05;1721311;82;21018;-72
2021/10/10 05:31:10;;;;;;;14.60;9.18;;;;;;;4.95;56.06;101416.03;1670558;85;21033;-72
2021/10/10 05:33:36;;;;;;;18.80;11.03;;;;;;;4.97;56.28;101419.38;1714797;83;21647;-72
2021/10/10 05:36:03;;;;;;;18.62;9.40;;;;;;;4.97;56.31;101418.53;1715096;83;21027;-73
2021/10/10 05:38:29;;;;;;;24.52;10.32;;;;;;;4.99;56.27;101422.68;1730824;82;21284;-72
2021/10/10 05:40:56;;;;;;;16.15;10.10;;;;;;;5.01;56.15;101420.69;1744612;82;20933;-73
2021/10/10 05:43:22;;;;;;;12.78;8.98;;;;;;;5.05;56.11;101422.50;1723375;82;21041;-74
2021/10/10 05:45:49;;;;;;;12.43;9.13;;;;;;;5.07;56.23;101423.17;1744608;82;21040;-72
2021/10/10 05:48:16;;;;;;;12.95;9.08;;;;;;;5.08;56.33;101425.68;1733917;82;21035;-72
2021/10/10 05:50:42;;;;;;;12.30;8.50;;;;;;;5.10;56.24;101423.66;1714927;83;21188;-72
2021/10/10 05:53:08;;;;;;;14.63;9.85;;;;;;;5.14;56.20;101428.97;1714852;83;20992;-74
2021/10/10 05:55:38;;;;;;;13.50;9.00;;;;;;;5.17;56.22;101422.48;1714931;83;21056;-71
2021/10/10 05:58:07;;;;;;;10.38;8.00;;;;;;;5.22;56.12;101426.80;1727887;82;21020;-72
2021/10/10 06:00:33;;;;;;;14.83;10.20;;;;;;;5.27;56.17;101423.91;1694524;83;21561;-73
2021/10/10 06:02:59;;;;;;;16.23;9.30;;;;;;;5.31;56.19;101421.75;1714938;83;21927;-72
2021/10/10 06:05:25;;;;;;;20.15;12.60;;;;;;;5.36;56.22;101422.06;1694120;83;21544;-72
2021/10/10 06:07:52;;;;;;;15.40;11.63;;;;;;;5.39;56.26;101424.88;1717014;82;21338;-73
2021/10/10 06:10:18;;;;;;;16.55;10.82;;;;;;;5.43;56.16;101427.02;1725407;82;21488;-72
2021/10/10 06:12:45;;;;;;;18.15;10.03;;;;;;;5.47;56.18;101424.33;1741318;82;21013;-73
2021/10/10 06:15:11;;;;;;;17.02;10.70;;;;;;;5.53;56.10;101426.31;1744555;82;22279;-72
2021/10/10 06:17:38;;;;;;;16.97;10.72;;;;;;;5.56;56.09;101427.28;1730911;81;20970;-72
2021/10/10 06:20:06;;;;;;;16.12;12.03;;;;;;;5.61;56.08;101425.45;1757709;81;21032;-72
2021/10/10 06:22:34;;;;;;;16.85;9.35;;;;;;;5.66;56.11;101420.39;1744822;82;21072;-73
2021/10/10 06:25:01;;;;;;;18.60;10.03;;;;;;;5.71;56.11;101425.54;1741384;82;21115;-72
2021/10/10 06:27:27;;;;;;;16.50;9.28;;;;;;;5.74;55.97;101427.55;1701446;83;21064;-71
2021/10/10 06:29:53;;;;;;;13.62;8.60;;;;;;;5.77;55.91;101423.17;1719925;83;21127;-72
2021/10/10 06:32:20;;;;;;;13.90;9.03;;;;;;;5.90;55.90;101422.95;1720128;82;21041;-72
2021/10/10 06:34:46;;;;;;;16.50;9.18;;;;;;;5.90;55.90;101422.95;1719291;82;21024;-72
2021/10/10 06:37:12;;;;;;;11.28;7.67;;;;;;;6.04;55.40;101424.86;1692340;83;21502;-73
2021/10/10 06:39:39;;;;;;;14.38;10.45;;;;;;;6.04;55.40;101424.86;1673222;84;21052;-73
2021/10/10 06:42:06;;;;;;;15.43;9.85;;;;;;;6.10;55.41;101423.31;1691237;84;20980;-73
2021/10/10 06:44:34;;;;;;;14.45;9.65;;;;;;;6.19;55.32;101428.12;1673521;84;21064;-73
2021/10/10 06:47:01;;;;;;;15.43;10.23;;;;;;;6.28;55.23;101431.05;1691274;83;21482;-73
2021/10/10 06:49:27;;;;;;;15.35;9.60;;;;;;;6.33;55.38;101428.14;1658655;84;21005;-73
2021/10/10 06:51:54;;;;;;;14.18;10.13;;;;;;;6.41;55.12;101429.94;1691281;84;21113;-74
2021/10/10 06:54:20;;;;;;;15.72;10.18;;;;;;;6.47;54.75;101423.37;1696507;83;20953;-74
2021/10/10 06:56:47;;;;;;;13.90;9.60;;;;;;;6.56;54.33;101430.81;1682123;83;21502;-75
2021/10/10 06:59:13;;;;;;;15.98;8.93;;;;;;;6.61;54.04;101427.59;1694656;83;21560;-75
2021/10/10 07:01:40;;;;;;;16.20;9.60;;;;;;;6.70;53.89;101431.84;1696241;83;20993;-78
2021/10/10 07:04:06;;;;;;;14.78;10.15;;;;;;;6.76;53.77;101431.13;1682861;83;21168;-72
2021/10/10 07:06:32;;;;;;;13.40;8.73;;;;;;;6.78;53.87;101431.25;1712327;83;21017;-75
2021/10/10 07:08:59;;;;;;;13.43;9.45;;;;;;;6.85;53.92;101430.03;1719118;82;20989;-75
2021/10/10 07:11:25;;;;;;;14.87;9.83;;;;;;;6.94;53.95;101432.94;1705520;82;21028;-71
2021/10/10 07:13:51;;;;;;;20.17;10.13;;;;;;;7.04;53.84;101434.84;1710102;83;21024;-75
2021/10/10 07:16:22;;;;;;;22.22;11.63;;;;;;;7.15;53.61;101436.20;1705182;83;21115;-73
2021/10/10 07:18:47;;;;;;;15.32;9.85;;;;;;;7.27;52.77;101437.41;1673913;84;21031;-72
2021/10/10 07:21:39;;;;;;;20.75;11.30;;;;;;;7.36;52.10;101435.80;1697699;83;21045;-74
2021/10/10 07:26:25;;;;;;;21.05;13.50;;;;;;;7.55;51.89;101434.89;1715497;81;21052;-74
2021/10/10 07:28:52;;;;;;;18.98;10.48;;;;;;;7.63;51.90;101427.56;1725298;81;21279;-73
2021/10/10 07:31:18;;;;;;;16.73;10.08;;;;;;;7.71;51.55;101422.12;1754954;81;21004;-74
2021/10/10 07:33:44;;;;;;;16.20;10.72;;;;;;;7.79;51.34;101423.34;1733905;81;22397;-72
2021/10/10 07:36:11;;;;;;;14.35;10.28;;;;;;;7.87;51.05;101427.23;1727758;81;20984;-74
2021/10/10 07:38:38;;;;;;;18.23;12.68;;;;;;;7.97;50.88;101424.75;1733450;81;21020;-73
2021/10/10 07:41:04;;;;;;;19.20;13.75;;;;;;;8.07;50.74;101428.78;1729176;81;21127;-72
2021/10/10 07:43:31;;;;;;;23.40;12.90;;;;;;;8.18;50.82;101431.47;1696954;83;20952;-73
2021/10/10 07:46:16;;;;;;;22.65;11.60;;;;;;;8.30;50.77;101427.27;1738950;81;21082;-73
2021/10/10 07:48:27;;;;;;;18.62;11.05;;;;;;;8.41;50.49;101425.42;1748990;81;21501;-74
2021/10/10 07:50:53;;;;;;;22.13;14.10;;;;;;;8.52;50.30;101424.91;1748063;81;21012;-74
2021/10/10 07:53:19;;;;;;;16.00;9.83;;;;;;;8.64;49.78;101427.88;1637712;85;21903;-73
2021/10/10 07:55:46;;;;;;;16.80;10.05;;;;;;;8.74;49.12;101429.70;1706881;82;20946;-74
2021/10/10 07:58:12;;;;;;;16.55;9.68;;;;;;;8.84;49.01;101429.36;1709729;83;21482;-72
2021/10/10 08:00:38;;;;;;;14.68;9.80;;;;;;;8.92;49.02;101431.91;1729255;81;21517;-74
2021/10/10 08:03:05;;;;;;;18.52;10.05;;;;;;;9.02;49.02;101433.20;1725422;81;21068;-74
2021/10/10 08:05:43;;;;;;;22.35;10.30;;;;;;;9.17;48.75;101426.37;1724643;81;21832;-74
2021/10/10 08:08:10;;;;;;;17.95;10.13;;;;;;;9.31;47.90;101432.12;1755105;81;21060;-73
2021/10/10 08:10:36;;;;;;;15.15;8.28;;;;;;;9.45;47.63;101428.98;1725252;81;21004;-74
2021/10/10 08:13:03;;;;;;;17.02;9.18;;;;;;;9.60;46.72;101433.19;1755064;81;21541;-74
2021/10/10 08:15:29;;;;;;;14.35;8.70;;;;;;;9.73;46.51;101438.31;1719167;83;21564;-74
2021/10/10 08:17:56;;;;;;;14.50;7.35;;;;;;;9.81;46.15;101428.21;1718632;83;21796;-74
2021/10/10 08:20:22;;;;;;;19.35;7.95;;;;;;;9.93;45.69;101431.95;1723622;83;21031;-73
2021/10/10 08:22:49;;;;;;;14.53;8.43;;;;;;;10.04;45.71;101428.68;1718557;83;21576;-75
2021/10/10 08:25:16;;;;;;;13.40;7.85;;;;;;;10.18;44.99;101429.56;1718879;83;21524;-73
2021/10/10 08:27:45;;;;;;;11.80;8.30;;;;;;;10.31;44.47;101430.91;1723586;83;20968;-73
2021/10/10 08:30:15;;;;;;;13.22;7.55;;;;;;;10.41;44.10;101434.54;1723579;83;21168;-73
2021/10/10 08:32:43;;;;;;;20.27;7.55;;;;;;;10.49;44.08;101432.50;1718635;83;21564;-74
2021/10/10 08:35:09;;;;;;;20.25;8.25;;;;;;;10.60;42.92;101424.84;1722309;81;21582;-72
2021/10/10 08:37:36;;;;;;;20.82;8.85;;;;;;;10.71;42.61;101419.65;1725322;81;21060;-73
2021/10/10 08:40:04;;;;;;;10.60;6.40;;;;;;;10.83;42.45;101422.55;1725245;81;21079;-75
2021/10/10 08:42:35;;;;;;;18.05;7.17;;;;;;;10.98;41.96;101429.05;1723991;81;21793;-73
2021/10/10 08:45:07;;;;;;;14.28;6.28;;;;;;;11.08;41.96;101427.55;1753628;81;20992;-73
2021/10/10 08:47:33;;;;;;;13.25;7.12;;;;;;;11.19;41.44;101430.13;1725211;81;21157;-74
2021/10/10 08:50:01;;;;;;;11.95;6.62;;;;;;;11.28;41.24;101418.91;1755344;81;20968;-74
2021/10/10 08:52:28;;;;;;;13.70;6.10;;;;;;;11.36;40.89;101425.95;1755279;81;21036;-72
2021/10/10 08:54:54;;;;;;;11.10;6.60;;;;;;;11.44;40.07;101420.83;1755263;81;21269;-74
2021/10/10 08:57:21;;;;;;;14.47;5.70;;;;;;;11.47;40.21;101413.14;1754179;81;20925;-73
2021/10/10 08:59:52;;;;;;;17.17;7.65;;;;;;;11.54;40.40;101415.81;1725387;81;21028;-73
2021/10/10 09:02:21;;;;;;;5.87;4.35;;;;;;;11.61;39.94;101421.98;1718736;83;21588;-74
2021/10/10 09:04:48;;;;;;;8.10;5.03;;;;;;;11.69;39.76;101421.25;1700554;83;21021;-73
2021/10/10 09:07:14;;;;;;;11.30;5.42;;;;;;;11.78;38.92;101417.81;1676423;84;21200;-76
2021/10/10 09:09:41;;;;;;;13.70;6.00;;;;;;;11.84;39.28;101416.95;1725339;83;21536;-72
2021/10/10 09:12:10;;;;;;;10.70;5.97;;;;;;;11.96;39.11;101415.73;1725039;83;21540;-73
2021/10/10 09:14:51;;;;;;;9.40;5.22;;;;;;;12.06;38.89;101415.56;1696465;83;21092;-73
2021/10/10 09:17:21;;;;;;;7.03;4.85;;;;;;;12.23;38.58;101413.16;1749612;81;21017;-72
2021/10/10 09:19:54;;;;;;;11.40;6.15;;;;;;;12.38;38.05;101411.49;1754909;81;22456;-72
2021/10/10 09:22:22;;;;;;;16.90;5.37;;;;;;;12.49;37.79;101402.17;1755190;81;21048;-74
2021/10/10 09:24:54;;;;;;;9.00;4.95;;;;;;;12.60;37.38;101404.69;1754885;81;20996;-73
2021/10/10 09:27:22;;;;;;;6.47;5.37;;;;;;;12.71;36.75;101395.84;1719940;83;20944;-75
2021/10/10 09:29:51;;;;;;;7.15;4.65;;;;;;;12.79;35.85;101395.58;1720312;83;21477;-73
2021/10/10 09:32:26;;;;;;;12.35;5.58;;;;;;;12.87;35.93;101393.09;1691708;83;21517;-74
2021/10/10 09:34:52;;;;;;;9.40;5.00;;;;;;;12.95;35.91;101394.17;1734381;82;21020;-73
2021/10/10 09:37:42;;;;;;;12.85;4.58;;;;;;;13.03;35.77;101389.30;1694591;83;20946;-73
2021/10/10 09:40:14;;;;;;;7.12;4.22;;;;;;;13.14;35.59;101389.09;1695405;83;21001;-72
2021/10/10 09:42:43;;;;;;;4.72;3.70;;;;;;;13.24;35.09;101381.28;1673767;83;21521;-72
2021/10/10 09:45:26;;;;;;;17.05;4.62;;;;;;;13.27;34.19;101378.15;1678199;84;21095;-73
2021/10/10 09:48:02;;;;;;;9.43;3.98;;;;;;;13.28;34.31;101385.21;1685855;84;21011;-74
2021/10/10 09:50:31;;;;;;;9.13;4.40;;;;;;;13.29;34.53;101381.95;1667852;85;20993;-72
2021/10/10 09:53:11;;;;;;;6.87;3.90;;;;;;;13.37;34.32;101378.97;1686040;84;21570;-73
2021/10/10 09:56:03;;;;;;;10.32;5.17;;;;;;;13.44;34.16;101379.17;1671068;84;21021;-73
2021/10/10 09:58:38;;;;;;;10.23;3.92;;;;;;;13.53;34.26;101379.16;1684103;84;22392;-73
2021/10/10 10:01:19;;;;;;;4.45;3.30;;;;;;;13.58;33.73;101379.81;1685772;84;21048;-73
2021/10/10 10:04:04;;;;;;;8.53;3.72;;;;;;;13.65;33.25;101375.69;1686172;85;21549;-72
2021/10/10 10:06:33;;;;;;;10.58;4.55;;;;;;;13.72;33.41;101381.81;1685841;84;21146;-74
2021/10/10 10:09:02;;;;;;;9.93;4.78;;;;;;;13.84;33.59;101381.34;1649331;85;21108;-74
2021/10/10 10:11:38;;;;;;;6.03;3.80;;;;;;;13.94;33.18;101384.33;1685926;85;21154;-73
2021/10/10 10:14:14;;;;;;;8.70;4.33;;;;;;;13.91;32.69;101380.19;1671024;83;20992;-72
2021/10/10 10:16:48;;;;;;;20.23;8.88;;;;;;;13.90;33.21;101378.56;1687727;83;21100;-74
2021/10/10 10:19:17;;;;;;;9.83;5.08;;;;;;;13.94;33.36;101364.86;1686148;85;21045;-74
2021/10/10 10:21:47;;;;;;;6.92;4.65;;;;;;;14.04;33.47;101369.71;1685802;84;21550;-72
2021/10/10 10:24:15;;;;;;;13.13;4.53;;;;;;;14.10;33.07;101363.34;1670372;83;21456;-73
2021/10/10 10:26:42;;;;;;;8.23;3.75;;;;;;;14.18;33.28;101362.20;1694515;83;21520;-74
2021/10/10 10:29:15;;;;;;;7.15;3.58;;;;;;;14.24;33.26;101359.93;1722026;83;21500;-74
2021/10/10 10:31:45;;;;;;;8.33;3.80;;;;;;;14.33;33.42;101358.53;1691480;84;21580;-75
2021/10/10 10:34:29;;;;;;;16.45;4.35;;;;;;;14.44;33.29;101359.08;1705262;83;20973;-75
2021/10/10 10:37:05;;;;;;;9.13;4.10;;;;;;;14.53;33.28;101352.25;1718618;82;21056;-75
2021/10/10 10:39:44;;;;;;;13.90;5.55;;;;;;;14.56;33.16;101353.69;1797293;79;56113;-75
2021/10/10 10:42:22;;;;;;;11.60;5.47;;;;;;;14.55;33.14;101358.27;1767728;80;21579;-73
2021/10/10 10:44:52;;;;;;;8.95;4.17;;;;;;;14.52;33.25;101351.98;1779747;80;21488;-76
2021/10/10 10:47:25;;;;;;;13.05;4.85;;;;;;;14.62;33.80;101355.45;1733476;81;21543;-75
2021/10/10 10:49:58;;;;;;;6.65;4.40;;;;;;;14.78;33.59;101353.38;1757820;81;20961;-74
2021/10/10 10:52:36;;;;;;;8.65;4.80;;;;;;;14.91;32.97;101360.45;1759930;81;20908;-73
2021/10/10 10:55:18;;;;;;;7.53;3.83;;;;;;;14.93;32.98;101355.07;1741006;80;20996;-73
2021/10/10 10:58:11;;;;;;;11.60;4.03;;;;;;;15.01;32.96;101344.41;1740466;81;21098;-74
2021/10/10 11:00:47;;;;;;;16.70;6.20;;;;;;;15.20;33.00;101339.13;1759057;81;21146;-75
2021/10/10 11:03:24;;;;;;;8.33;4.25;;;;;;;15.38;32.54;101335.41;1759183;81;22279;-71
2021/10/10 11:06:11;;;;;;;8.70;4.40;;;;;;;15.45;32.42;101334.19;1759398;80;21035;-74
2021/10/10 11:08:40;;;;;;;13.22;7.92;;;;;;;15.41;31.78;101333.02;1762409;80;20923;-73
2021/10/10 11:11:17;;;;;;;9.10;4.37;;;;;;;15.44;32.05;101327.67;1760001;81;20988;-73
2021/10/10 11:13:51;;;;;;;8.48;4.12;;;;;;;15.47;31.76;101319.03;1760005;81;20927;-72
2021/10/10 11:16:32;;;;;;;8.58;4.08;;;;;;;15.50;31.60;101324.80;1754377;80;21139;-74
2021/10/10 11:19:08;;;;;;;10.82;3.92;;;;;;;15.60;29.89;101316.88;1789963;80;20932;-75
2021/10/10 11:21:41;;;;;;;17.60;3.10;;;;;;;15.67;28.81;101326.23;1790857;80;20947;-74
2021/10/10 11:24:20;;;;;;;5.47;3.08;;;;;;;15.73;29.06;101324.45;1790857;80;21554;-73
2021/10/10 11:26:49;;;;;;;10.20;3.00;;;;;;;15.71;28.25;101321.97;1759083;80;21507;-71
2021/10/10 11:29:18;;;;;;;7.92;3.10;;;;;;;15.64;28.23;101319.39;1742507;82;22489;-74
2021/10/10 11:31:46;;;;;;;9.23;3.12;;;;;;;15.63;28.62;101317.73;1742735;82;21089;-72
2021/10/10 11:34:17;;;;;;;5.90;3.55;;;;;;;15.67;28.97;101320.28;1746657;81;20928;-75